Creighton, South Dakota
Current Conditions -  °F | °C
As of 12:55 PM on Thursday 29 Jan 2015 (Local Time) from KPHP Reporting Station
Clear Clear  
Wind Chill: 39°   Ceiling: Unl
Heat Index: 44°   Visibility: 10mi
Dew Point: 21°   Wind: 10mph
Humidity: 40%   Direction: 330°NNW
Pressure: 30.45"   Gusts: NA
Location:  44.29°N, 102.14°W
Report Text: KPHP 291955Z AUTO 33009KT 10SM CLR 07/M06 A3045 RMK AO2 SLP323 T00671061
Loading
Personal Weather Stations






























Interactive Weather Map New forecast layout! Learn more

10-Day Weather Forecast

Advertisements
Track Severe Weather on mobile